sensor_id;sensor_type;location;lat;lon;timestamp;temperature;humidity
37530;DHT22;23374;52.758;6.872;2022-12-08T00:00:36;2.80;99.90
37530;DHT22;23374;52.758;6.872;2022-12-08T00:02:56;2.80;99.90
37530;DHT22;23374;52.758;6.872;2022-12-08T00:05:18;2.80;99.90
37530;DHT22;23374;52.758;6.872;2022-12-08T00:08:01;2.80;99.90
37530;DHT22;23374;52.758;6.872;2022-12-08T00:10:43;2.80;99.90
37530;DHT22;23374;52.758;6.872;2022-12-08T00:13:04;2.80;99.90
37530;DHT22;23374;52.758;6.872;2022-12-08T00:15:26;2.80;99.90
37530;DHT22;23374;52.758;6.872;2022-12-08T00:17:46;2.90;99.90
37530;DHT22;23374;52.758;6.872;2022-12-08T00:20:08;2.90;99.90
37530;DHT22;23374;52.758;6.872;2022-12-08T00:22:29;2.90;99.90
37530;DHT22;23374;52.758;6.872;2022-12-08T00:24:51;3.00;99.90
37530;DHT22;23374;52.758;6.872;2022-12-08T00:27:13;3.00;99.90
37530;DHT22;23374;52.758;6.872;2022-12-08T00:29:34;3.00;99.90
37530;DHT22;23374;52.758;6.872;2022-12-08T00:31:54;3.10;99.90
37530;DHT22;23374;52.758;6.872;2022-12-08T00:34:15;3.10;99.90
37530;DHT22;23374;52.758;6.872;2022-12-08T00:36:36;3.10;99.90
37530;DHT22;23374;52.758;6.872;2022-12-08T00:38:56;3.00;99.90
37530;DHT22;23374;52.758;6.872;2022-12-08T00:41:20;3.00;99.90
37530;DHT22;23374;52.758;6.872;2022-12-08T00:44:31;3.00;99.90
37530;DHT22;23374;52.758;6.872;2022-12-08T00:46:51;3.00;99.90
37530;DHT22;23374;52.758;6.872;2022-12-08T00:49:12;3.00;99.90
37530;DHT22;23374;52.758;6.872;2022-12-08T00:51:33;3.00;99.90
37530;DHT22;23374;52.758;6.872;2022-12-08T00:53:53;2.90;99.90
37530;DHT22;23374;52.758;6.872;2022-12-08T00:56:13;2.90;99.90
37530;DHT22;23374;52.758;6.872;2022-12-08T00:58:34;2.90;99.90
37530;DHT22;23374;52.758;6.872;2022-12-08T01:00:54;2.90;99.90
37530;DHT22;23374;52.758;6.872;2022-12-08T01:03:14;2.90;99.90
37530;DHT22;23374;52.758;6.872;2022-12-08T01:05:35;2.90;99.90
37530;DHT22;23374;52.758;6.872;2022-12-08T01:07:55;2.80;99.90
37530;DHT22;23374;52.758;6.872;2022-12-08T01:10:16;2.80;99.90
37530;DHT22;23374;52.758;6.872;2022-12-08T01:12:37;2.80;99.90
37530;DHT22;23374;52.758;6.872;2022-12-08T01:14:57;2.80;99.90
37530;DHT22;23374;52.758;6.872;2022-12-08T01:17:17;2.70;99.90
37530;DHT22;23374;52.758;6.872;2022-12-08T01:19:37;2.70;99.90
37530;DHT22;23374;52.758;6.872;2022-12-08T01:21:58;2.60;99.90
37530;DHT22;23374;52.758;6.872;2022-12-08T01:24:20;2.60;99.90
37530;DHT22;23374;52.758;6.872;2022-12-08T01:26:40;2.60;99.90
37530;DHT22;23374;52.758;6.872;2022-12-08T01:29:01;2.60;99.90
37530;DHT22;23374;52.758;6.872;2022-12-08T01:31:22;2.50;99.90
37530;DHT22;23374;52.758;6.872;2022-12-08T01:33:43;2.50;99.90
37530;DHT22;23374;52.758;6.872;2022-12-08T01:36:04;2.50;99.90
37530;DHT22;23374;52.758;6.872;2022-12-08T01:38:25;2.50;99.90
37530;DHT22;23374;52.758;6.872;2022-12-08T01:40:45;2.50;99.90
37530;DHT22;23374;52.758;6.872;2022-12-08T01:43:08;2.50;99.90
37530;DHT22;23374;52.758;6.872;2022-12-08T01:45:30;2.50;99.90
37530;DHT22;23374;52.758;6.872;2022-12-08T01:48:05;2.50;99.90
37530;DHT22;23374;52.758;6.872;2022-12-08T01:50:27;2.40;99.90
37530;DHT22;23374;52.758;6.872;2022-12-08T01:52:53;2.40;99.90
37530;DHT22;23374;52.758;6.872;2022-12-08T01:55:31;2.40;99.90
37530;DHT22;23374;52.758;6.872;2022-12-08T01:57:57;2.40;99.90
37530;DHT22;23374;52.758;6.872;2022-12-08T02:00:21;2.40;99.90
37530;DHT22;23374;52.758;6.872;2022-12-08T02:03:20;2.40;99.90
37530;DHT22;23374;52.758;6.872;2022-12-08T02:05:45;2.40;99.90
37530;DHT22;23374;52.758;6.872;2022-12-08T02:08:09;2.40;99.90
37530;DHT22;23374;52.758;6.872;2022-12-08T02:10:33;2.40;99.90
37530;DHT22;23374;52.758;6.872;2022-12-08T02:12:55;2.50;99.90
37530;DHT22;23374;52.758;6.872;2022-12-08T02:15:17;2.50;99.90
37530;DHT22;23374;52.758;6.872;2022-12-08T02:24:46;2.50;99.90
37530;DHT22;23374;52.758;6.872;2022-12-08T02:36:50;2.60;99.90
37530;DHT22;23374;52.758;6.872;2022-12-08T02:48:16;2.90;99.90
37530;DHT22;23374;52.758;6.872;2022-12-08T02:50:37;2.90;99.90
37530;DHT22;23374;52.758;6.872;2022-12-08T02:52:57;2.90;99.90
37530;DHT22;23374;52.758;6.872;2022-12-08T03:13:59;3.00;99.90
37530;DHT22;23374;52.758;6.872;2022-12-08T03:16:29;3.00;99.90
37530;DHT22;23374;52.758;6.872;2022-12-08T03:19:00;3.00;99.90
37530;DHT22;23374;52.758;6.872;2022-12-08T03:21:23;3.10;99.90
37530;DHT22;23374;52.758;6.872;2022-12-08T03:23:45;3.10;99.90
37530;DHT22;23374;52.758;6.872;2022-12-08T03:26:12;3.10;99.90
37530;DHT22;23374;52.758;6.872;2022-12-08T03:28:36;3.10;99.90
37530;DHT22;23374;52.758;6.872;2022-12-08T03:31:06;3.20;99.90
37530;DHT22;23374;52.758;6.872;2022-12-08T03:33:37;3.20;99.90
37530;DHT22;23374;52.758;6.872;2022-12-08T03:36:01;3.20;99.90
37530;DHT22;23374;52.758;6.872;2022-12-08T03:38:23;3.20;99.90
37530;DHT22;23374;52.758;6.872;2022-12-08T03:40:44;3.20;99.90
37530;DHT22;23374;52.758;6.872;2022-12-08T03:43:37;3.20;99.90
37530;DHT22;23374;52.758;6.872;2022-12-08T03:45:57;3.30;99.90
37530;DHT22;23374;52.758;6.872;2022-12-08T03:48:18;3.30;99.90
37530;DHT22;23374;52.758;6.872;2022-12-08T03:50:38;3.30;99.90
37530;DHT22;23374;52.758;6.872;2022-12-08T03:52:58;3.30;99.90
37530;DHT22;23374;52.758;6.872;2022-12-08T03:55:18;3.30;99.90
37530;DHT22;23374;52.758;6.872;2022-12-08T03:57:40;3.40;99.90
37530;DHT22;23374;52.758;6.872;2022-12-08T04:00:02;3.40;99.90
37530;DHT22;23374;52.758;6.872;2022-12-08T04:02:23;3.40;99.90
37530;DHT22;23374;52.758;6.872;2022-12-08T04:04:44;3.40;99.90
37530;DHT22;23374;52.758;6.872;2022-12-08T04:07:04;3.40;99.90
37530;DHT22;23374;52.758;6.872;2022-12-08T04:09:25;3.40;99.90
37530;DHT22;23374;52.758;6.872;2022-12-08T04:11:45;3.40;99.90
37530;DHT22;23374;52.758;6.872;2022-12-08T04:14:06;3.40;99.90
37530;DHT22;23374;52.758;6.872;2022-12-08T04:16:26;3.40;99.90
37530;DHT22;23374;52.758;6.872;2022-12-08T04:18:48;3.40;99.90
37530;DHT22;23374;52.758;6.872;2022-12-08T04:21:08;3.50;99.90
37530;DHT22;23374;52.758;6.872;2022-12-08T04:23:28;3.50;99.90
37530;DHT22;23374;52.758;6.872;2022-12-08T04:25:51;3.40;99.90
37530;DHT22;23374;52.758;6.872;2022-12-08T04:28:12;3.50;99.90
37530;DHT22;23374;52.758;6.872;2022-12-08T04:30:33;3.40;99.90
37530;DHT22;23374;52.758;6.872;2022-12-08T04:32:53;3.50;99.90
37530;DHT22;23374;52.758;6.872;2022-12-08T04:35:13;3.50;99.90
37530;DHT22;23374;52.758;6.872;2022-12-08T04:37:34;3.50;99.90
37530;DHT22;23374;52.758;6.872;2022-12-08T04:39:54;3.50;99.90
37530;DHT22;23374;52.758;6.872;2022-12-08T04:42:14;3.50;99.90
37530;DHT22;23374;52.758;6.872;2022-12-08T04:44:34;3.50;99.90
37530;DHT22;23374;52.758;6.872;2022-12-08T04:46:55;3.50;99.90
37530;DHT22;23374;52.758;6.872;2022-12-08T04:49:15;3.60;99.90
37530;DHT22;23374;52.758;6.872;2022-12-08T04:51:35;3.50;99.90
37530;DHT22;23374;52.758;6.872;2022-12-08T04:53:55;3.60;99.90
37530;DHT22;23374;52.758;6.872;2022-12-08T04:56:17;3.60;99.90
37530;DHT22;23374;52.758;6.872;2022-12-08T04:58:38;3.60;99.90
37530;DHT22;23374;52.758;6.872;2022-12-08T05:00:58;3.60;99.90
37530;DHT22;23374;52.758;6.872;2022-12-08T05:03:19;3.60;99.90
37530;DHT22;23374;52.758;6.872;2022-12-08T05:05:41;3.60;99.90
37530;DHT22;23374;52.758;6.872;2022-12-08T05:08:01;3.60;99.90
37530;DHT22;23374;52.758;6.872;2022-12-08T05:10:22;3.60;99.90
37530;DHT22;23374;52.758;6.872;2022-12-08T05:12:43;3.60;99.90
37530;DHT22;23374;52.758;6.872;2022-12-08T05:15:04;3.70;99.90
37530;DHT22;23374;52.758;6.872;2022-12-08T05:17:25;3.70;99.90
37530;DHT22;23374;52.758;6.872;2022-12-08T05:19:46;3.70;99.90
37530;DHT22;23374;52.758;6.872;2022-12-08T05:22:06;3.70;99.90
37530;DHT22;23374;52.758;6.872;2022-12-08T05:24:26;3.70;99.90
37530;DHT22;23374;52.758;6.872;2022-12-08T05:26:47;3.70;99.90
37530;DHT22;23374;52.758;6.872;2022-12-08T05:29:07;3.70;99.90
37530;DHT22;23374;52.758;6.872;2022-12-08T05:31:28;3.60;99.90
37530;DHT22;23374;52.758;6.872;2022-12-08T05:33:50;3.70;99.90
37530;DHT22;23374;52.758;6.872;2022-12-08T05:36:13;3.70;99.90
37530;DHT22;23374;52.758;6.872;2022-12-08T05:38:34;3.70;99.90
37530;DHT22;23374;52.758;6.872;2022-12-08T05:40:54;3.70;99.90
37530;DHT22;23374;52.758;6.872;2022-12-08T05:43:14;3.70;99.90
37530;DHT22;23374;52.758;6.872;2022-12-08T05:45:34;3.70;99.90
37530;DHT22;23374;52.758;6.872;2022-12-08T05:47:54;3.70;99.90
37530;DHT22;23374;52.758;6.872;2022-12-08T05:50:15;3.70;99.90
37530;DHT22;23374;52.758;6.872;2022-12-08T05:52:36;3.70;99.90
37530;DHT22;23374;52.758;6.872;2022-12-08T05:54:57;3.70;99.90
37530;DHT22;23374;52.758;6.872;2022-12-08T05:57:17;3.70;99.90
37530;DHT22;23374;52.758;6.872;2022-12-08T05:59:38;3.70;99.90
37530;DHT22;23374;52.758;6.872;2022-12-08T06:01:58;3.70;99.90
37530;DHT22;23374;52.758;6.872;2022-12-08T06:04:18;3.80;99.90
37530;DHT22;23374;52.758;6.872;2022-12-08T06:06:39;3.80;99.90
37530;DHT22;23374;52.758;6.872;2022-12-08T06:09:02;3.80;99.90
37530;DHT22;23374;52.758;6.872;2022-12-08T06:11:26;3.70;99.90
37530;DHT22;23374;52.758;6.872;2022-12-08T06:13:47;3.80;99.90
37530;DHT22;23374;52.758;6.872;2022-12-08T06:16:07;3.80;99.90
37530;DHT22;23374;52.758;6.872;2022-12-08T06:18:27;3.80;99.90
37530;DHT22;23374;52.758;6.872;2022-12-08T06:20:48;3.70;99.90
37530;DHT22;23374;52.758;6.872;2022-12-08T06:23:08;3.70;99.90
37530;DHT22;23374;52.758;6.872;2022-12-08T06:25:28;3.70;99.90
37530;DHT22;23374;52.758;6.872;2022-12-08T06:27:48;3.70;99.90
37530;DHT22;23374;52.758;6.872;2022-12-08T06:30:10;3.70;99.90
37530;DHT22;23374;52.758;6.872;2022-12-08T06:32:30;3.70;99.90
37530;DHT22;23374;52.758;6.872;2022-12-08T06:34:50;3.70;99.90
37530;DHT22;23374;52.758;6.872;2022-12-08T06:37:10;3.70;99.90
37530;DHT22;23374;52.758;6.872;2022-12-08T06:39:31;3.80;99.90
37530;DHT22;23374;52.758;6.872;2022-12-08T06:41:52;3.80;99.90
37530;DHT22;23374;52.758;6.872;2022-12-08T06:44:30;3.80;99.90
37530;DHT22;23374;52.758;6.872;2022-12-08T06:46:51;3.70;99.90
37530;DHT22;23374;52.758;6.872;2022-12-08T06:49:11;3.70;99.90
37530;DHT22;23374;52.758;6.872;2022-12-08T06:51:31;3.70;99.90
37530;DHT22;23374;52.758;6.872;2022-12-08T06:53:51;3.70;99.90
37530;DHT22;23374;52.758;6.872;2022-12-08T06:56:12;3.70;99.90
37530;DHT22;23374;52.758;6.872;2022-12-08T06:58:33;3.70;99.90
37530;DHT22;23374;52.758;6.872;2022-12-08T07:00:54;3.70;99.90
37530;DHT22;23374;52.758;6.872;2022-12-08T07:03:15;3.70;99.90
37530;DHT22;23374;52.758;6.872;2022-12-08T07:05:36;3.70;99.90
37530;DHT22;23374;52.758;6.872;2022-12-08T07:07:57;3.70;99.90
37530;DHT22;23374;52.758;6.872;2022-12-08T07:10:18;3.70;99.90
37530;DHT22;23374;52.758;6.872;2022-12-08T07:12:38;3.70;99.90
37530;DHT22;23374;52.758;6.872;2022-12-08T07:14:58;3.70;99.90
37530;DHT22;23374;52.758;6.872;2022-12-08T07:17:19;3.70;99.90
37530;DHT22;23374;52.758;6.872;2022-12-08T07:19:39;3.70;99.90
37530;DHT22;23374;52.758;6.872;2022-12-08T07:21:59;3.70;99.90
37530;DHT22;23374;52.758;6.872;2022-12-08T07:24:19;3.70;99.90
37530;DHT22;23374;52.758;6.872;2022-12-08T07:26:40;3.70;99.90
37530;DHT22;23374;52.758;6.872;2022-12-08T07:29:00;3.70;99.90
37530;DHT22;23374;52.758;6.872;2022-12-08T07:31:23;3.70;99.90
37530;DHT22;23374;52.758;6.872;2022-12-08T07:33:44;3.70;99.90
37530;DHT22;23374;52.758;6.872;2022-12-08T07:36:06;3.60;99.90
37530;DHT22;23374;52.758;6.872;2022-12-08T07:38:27;3.60;99.90
37530;DHT22;23374;52.758;6.872;2022-12-08T07:40:47;3.60;99.90
37530;DHT22;23374;52.758;6.872;2022-12-08T07:43:07;3.60;99.90
37530;DHT22;23374;52.758;6.872;2022-12-08T07:45:27;3.60;99.90
37530;DHT22;23374;52.758;6.872;2022-12-08T07:47:47;3.60;99.90
37530;DHT22;23374;52.758;6.872;2022-12-08T07:50:08;3.60;99.90
37530;DHT22;23374;52.758;6.872;2022-12-08T07:52:28;3.60;99.90
37530;DHT22;23374;52.758;6.872;2022-12-08T07:54:48;3.60;99.90
37530;DHT22;23374;52.758;6.872;2022-12-08T07:57:09;3.50;99.90
37530;DHT22;23374;52.758;6.872;2022-12-08T07:59:29;3.50;99.90
37530;DHT22;23374;52.758;6.872;2022-12-08T08:01:49;3.50;99.90
37530;DHT22;23374;52.758;6.872;2022-12-08T08:04:10;3.50;99.90
37530;DHT22;23374;52.758;6.872;2022-12-08T08:06:32;3.50;99.90
37530;DHT22;23374;52.758;6.872;2022-12-08T08:08:53;3.50;99.90
37530;DHT22;23374;52.758;6.872;2022-12-08T08:11:14;3.40;99.90
37530;DHT22;23374;52.758;6.872;2022-12-08T08:13:34;3.40;99.90
37530;DHT22;23374;52.758;6.872;2022-12-08T08:16:10;3.40;99.90
37530;DHT22;23374;52.758;6.872;2022-12-08T08:18:33;3.40;99.90
37530;DHT22;23374;52.758;6.872;2022-12-08T08:20:53;3.30;99.90
37530;DHT22;23374;52.758;6.872;2022-12-08T08:23:13;3.30;99.90
37530;DHT22;23374;52.758;6.872;2022-12-08T08:25:33;3.30;99.90
37530;DHT22;23374;52.758;6.872;2022-12-08T08:27:54;3.30;99.90
37530;DHT22;23374;52.758;6.872;2022-12-08T08:30:14;3.30;99.90
37530;DHT22;23374;52.758;6.872;2022-12-08T08:32:36;3.30;99.90
37530;DHT22;23374;52.758;6.872;2022-12-08T08:34:56;3.20;99.90
37530;DHT22;23374;52.758;6.872;2022-12-08T08:37:17;3.30;99.90
37530;DHT22;23374;52.758;6.872;2022-12-08T08:39:37;3.30;99.90
37530;DHT22;23374;52.758;6.872;2022-12-08T08:41:58;3.30;99.90
37530;DHT22;23374;52.758;6.872;2022-12-08T08:44:18;3.30;99.90
37530;DHT22;23374;52.758;6.872;2022-12-08T08:46:38;3.30;99.90
37530;DHT22;23374;52.758;6.872;2022-12-08T08:48:59;3.30;99.90
37530;DHT22;23374;52.758;6.872;2022-12-08T08:51:19;3.30;99.90
37530;DHT22;23374;52.758;6.872;2022-12-08T08:53:40;3.30;99.90
37530;DHT22;23374;52.758;6.872;2022-12-08T08:56:01;3.30;99.90
37530;DHT22;23374;52.758;6.872;2022-12-08T08:58:24;3.30;99.90
37530;DHT22;23374;52.758;6.872;2022-12-08T09:00:44;3.30;99.90
37530;DHT22;23374;52.758;6.872;2022-12-08T09:03:05;3.30;99.90
37530;DHT22;23374;52.758;6.872;2022-12-08T09:05:25;3.30;99.90
37530;DHT22;23374;52.758;6.872;2022-12-08T09:07:46;3.30;99.90
37530;DHT22;23374;52.758;6.872;2022-12-08T09:10:08;3.30;99.90
37530;DHT22;23374;52.758;6.872;2022-12-08T09:12:28;3.30;99.90
37530;DHT22;23374;52.758;6.872;2022-12-08T09:14:48;3.30;99.90
37530;DHT22;23374;52.758;6.872;2022-12-08T09:17:08;3.30;99.90
37530;DHT22;23374;52.758;6.872;2022-12-08T09:19:28;3.30;99.90
37530;DHT22;23374;52.758;6.872;2022-12-08T09:21:48;3.30;99.90
37530;DHT22;23374;52.758;6.872;2022-12-08T09:24:09;3.40;99.90
37530;DHT22;23374;52.758;6.872;2022-12-08T09:26:34;3.40;99.90
37530;DHT22;23374;52.758;6.872;2022-12-08T09:28:55;3.40;99.90
37530;DHT22;23374;52.758;6.872;2022-12-08T09:31:18;3.40;99.90
37530;DHT22;23374;52.758;6.872;2022-12-08T09:33:39;3.30;99.90
37530;DHT22;23374;52.758;6.872;2022-12-08T09:36:03;3.40;99.90
37530;DHT22;23374;52.758;6.872;2022-12-08T09:38:23;3.40;99.90
37530;DHT22;23374;52.758;6.872;2022-12-08T09:40:52;3.40;99.90
37530;DHT22;23374;52.758;6.872;2022-12-08T09:50:40;3.40;99.90
37530;DHT22;23374;52.758;6.872;2022-12-08T09:53:43;3.40;99.90
37530;DHT22;23374;52.758;6.872;2022-12-08T09:56:30;3.40;99.90
37530;DHT22;23374;52.758;6.872;2022-12-08T09:59:00;3.40;99.90
37530;DHT22;23374;52.758;6.872;2022-12-08T10:01:26;3.40;99.90
37530;DHT22;23374;52.758;6.872;2022-12-08T10:03:48;3.40;99.90
37530;DHT22;23374;52.758;6.872;2022-12-08T10:07:54;3.40;99.90
37530;DHT22;23374;52.758;6.872;2022-12-08T10:11:11;3.50;99.90
37530;DHT22;23374;52.758;6.872;2022-12-08T10:14:00;3.50;99.90
37530;DHT22;23374;52.758;6.872;2022-12-08T10:16:37;3.50;99.90
37530;DHT22;23374;52.758;6.872;2022-12-08T10:20:15;3.50;99.90
37530;DHT22;23374;52.758;6.872;2022-12-08T10:22:37;3.50;99.90
37530;DHT22;23374;52.758;6.872;2022-12-08T10:25:10;3.60;99.90
37530;DHT22;23374;52.758;6.872;2022-12-08T10:27:35;3.60;99.90
37530;DHT22;23374;52.758;6.872;2022-12-08T10:29:55;3.60;99.90
37530;DHT22;23374;52.758;6.872;2022-12-08T10:32:33;3.60;99.90
37530;DHT22;23374;52.758;6.872;2022-12-08T10:35:09;3.60;99.90
37530;DHT22;23374;52.758;6.872;2022-12-08T10:37:31;3.60;99.90
37530;DHT22;23374;52.758;6.872;2022-12-08T10:40:09;3.60;99.90
37530;DHT22;23374;52.758;6.872;2022-12-08T10:42:50;3.60;99.90
37530;DHT22;23374;52.758;6.872;2022-12-08T10:45:37;3.60;99.90
37530;DHT22;23374;52.758;6.872;2022-12-08T10:48:23;3.60;99.90
37530;DHT22;23374;52.758;6.872;2022-12-08T10:51:50;3.60;99.90
37530;DHT22;23374;52.758;6.872;2022-12-08T10:54:33;3.60;99.90
37530;DHT22;23374;52.758;6.872;2022-12-08T10:56:56;3.50;99.90
37530;DHT22;23374;52.758;6.872;2022-12-08T10:59:18;3.50;99.90
37530;DHT22;23374;52.758;6.872;2022-12-08T11:01:40;3.60;99.90
37530;DHT22;23374;52.758;6.872;2022-12-08T11:04:03;3.50;99.90
37530;DHT22;23374;52.758;6.872;2022-12-08T11:06:38;3.60;99.90
37530;DHT22;23374;52.758;6.872;2022-12-08T11:09:19;3.60;99.90
37530;DHT22;23374;52.758;6.872;2022-12-08T11:11:59;3.60;99.90
37530;DHT22;23374;52.758;6.872;2022-12-08T11:18:54;3.60;99.90
37530;DHT22;23374;52.758;6.872;2022-12-08T11:21:18;3.60;99.90
37530;DHT22;23374;52.758;6.872;2022-12-08T11:23:41;3.60;99.90
37530;DHT22;23374;52.758;6.872;2022-12-08T11:26:28;3.60;99.90
37530;DHT22;23374;52.758;6.872;2022-12-08T11:28:49;3.60;99.90
37530;DHT22;23374;52.758;6.872;2022-12-08T11:31:41;3.60;99.90
37530;DHT22;23374;52.758;6.872;2022-12-08T11:34:03;3.60;99.90
37530;DHT22;23374;52.758;6.872;2022-12-08T11:36:27;3.70;99.90
37530;DHT22;23374;52.758;6.872;2022-12-08T11:38:53;3.60;99.90
37530;DHT22;23374;52.758;6.872;2022-12-08T11:41:21;3.70;99.90
37530;DHT22;23374;52.758;6.872;2022-12-08T11:45:18;3.70;99.90
37530;DHT22;23374;52.758;6.872;2022-12-08T11:47:48;3.70;99.90
37530;DHT22;23374;52.758;6.872;2022-12-08T11:50:28;3.70;99.90
37530;DHT22;23374;52.758;6.872;2022-12-08T11:52:51;3.70;99.90
37530;DHT22;23374;52.758;6.872;2022-12-08T11:55:37;3.70;99.90
37530;DHT22;23374;52.758;6.872;2022-12-08T11:58:18;3.70;99.90
37530;DHT22;23374;52.758;6.872;2022-12-08T12:00:40;3.70;99.90
37530;DHT22;23374;52.758;6.872;2022-12-08T12:03:13;3.70;99.90
37530;DHT22;23374;52.758;6.872;2022-12-08T12:13:20;3.70;99.90
37530;DHT22;23374;52.758;6.872;2022-12-08T12:16:49;3.60;99.90
37530;DHT22;23374;52.758;6.872;2022-12-08T12:19:17;3.60;99.90
37530;DHT22;23374;52.758;6.872;2022-12-08T12:21:47;3.60;99.90
37530;DHT22;23374;52.758;6.872;2022-12-08T12:24:29;3.60;99.90
37530;DHT22;23374;52.758;6.872;2022-12-08T12:33:43;3.60;99.90
37530;DHT22;23374;52.758;6.872;2022-12-08T12:36:08;3.60;99.90
37530;DHT22;23374;52.758;6.872;2022-12-08T12:38:38;3.50;99.90
37530;DHT22;23374;52.758;6.872;2022-12-08T12:41:28;3.60;99.90
37530;DHT22;23374;52.758;6.872;2022-12-08T12:47:48;3.60;99.90
37530;DHT22;23374;52.758;6.872;2022-12-08T12:50:11;3.70;99.90
37530;DHT22;23374;52.758;6.872;2022-12-08T12:52:37;3.70;99.90
37530;DHT22;23374;52.758;6.872;2022-12-08T12:55:20;3.80;99.90
37530;DHT22;23374;52.758;6.872;2022-12-08T12:57:56;3.80;99.90
37530;DHT22;23374;52.758;6.872;2022-12-08T13:00:23;3.90;99.90
37530;DHT22;23374;52.758;6.872;2022-12-08T13:02:48;3.90;99.90
37530;DHT22;23374;52.758;6.872;2022-12-08T13:05:28;4.00;99.90
37530;DHT22;23374;52.758;6.872;2022-12-08T13:08:02;4.00;99.90
37530;DHT22;23374;52.758;6.872;2022-12-08T13:10:38;4.00;99.90
37530;DHT22;23374;52.758;6.872;2022-12-08T13:13:27;4.10;99.90
37530;DHT22;23374;52.758;6.872;2022-12-08T13:16:13;4.20;99.90
37530;DHT22;23374;52.758;6.872;2022-12-08T13:18:50;4.20;99.90
37530;DHT22;23374;52.758;6.872;2022-12-08T13:21:15;4.30;99.90
37530;DHT22;23374;52.758;6.872;2022-12-08T13:23:48;4.30;99.90
37530;DHT22;23374;52.758;6.872;2022-12-08T13:26:27;4.30;99.90
37530;DHT22;23374;52.758;6.872;2022-12-08T13:29:12;4.30;99.90
37530;DHT22;23374;52.758;6.872;2022-12-08T13:32:56;4.30;99.90
37530;DHT22;23374;52.758;6.872;2022-12-08T13:35:18;4.30;99.90
37530;DHT22;23374;52.758;6.872;2022-12-08T13:37:46;4.30;99.90
37530;DHT22;23374;52.758;6.872;2022-12-08T13:40:15;4.40;99.90
37530;DHT22;23374;52.758;6.872;2022-12-08T13:42:46;4.30;99.90
37530;DHT22;23374;52.758;6.872;2022-12-08T13:45:20;4.30;99.90
37530;DHT22;23374;52.758;6.872;2022-12-08T13:48:46;4.30;99.90
37530;DHT22;23374;52.758;6.872;2022-12-08T13:51:20;4.30;99.90
37530;DHT22;23374;52.758;6.872;2022-12-08T13:53:52;4.30;99.90
37530;DHT22;23374;52.758;6.872;2022-12-08T13:56:15;4.30;99.90
37530;DHT22;23374;52.758;6.872;2022-12-08T13:58:38;4.30;99.90
37530;DHT22;23374;52.758;6.872;2022-12-08T14:01:43;4.30;99.90
37530;DHT22;23374;52.758;6.872;2022-12-08T14:04:05;4.30;99.90
37530;DHT22;23374;52.758;6.872;2022-12-08T14:06:36;4.40;99.90
37530;DHT22;23374;52.758;6.872;2022-12-08T14:09:00;4.40;99.90
37530;DHT22;23374;52.758;6.872;2022-12-08T14:11:42;4.40;99.90
37530;DHT22;23374;52.758;6.872;2022-12-08T14:14:14;4.40;99.90
37530;DHT22;23374;52.758;6.872;2022-12-08T14:16:38;4.40;99.90
37530;DHT22;23374;52.758;6.872;2022-12-08T14:19:15;4.40;99.90
37530;DHT22;23374;52.758;6.872;2022-12-08T14:21:36;4.30;99.90
37530;DHT22;23374;52.758;6.872;2022-12-08T14:24:01;4.30;99.90
37530;DHT22;23374;52.758;6.872;2022-12-08T14:26:22;4.30;99.90
37530;DHT22;23374;52.758;6.872;2022-12-08T14:28:42;4.30;99.90
37530;DHT22;23374;52.758;6.872;2022-12-08T14:31:03;4.20;99.90
37530;DHT22;23374;52.758;6.872;2022-12-08T14:33:23;4.20;99.90
37530;DHT22;23374;52.758;6.872;2022-12-08T14:35:54;4.20;99.90
37530;DHT22;23374;52.758;6.872;2022-12-08T14:38:17;4.20;99.90
37530;DHT22;23374;52.758;6.872;2022-12-08T14:40:47;4.20;99.90
37530;DHT22;23374;52.758;6.872;2022-12-08T14:43:19;4.10;99.90
37530;DHT22;23374;52.758;6.872;2022-12-08T14:45:50;4.10;99.90
37530;DHT22;23374;52.758;6.872;2022-12-08T14:48:46;4.10;99.90
37530;DHT22;23374;52.758;6.872;2022-12-08T14:51:30;4.10;99.90
37530;DHT22;23374;52.758;6.872;2022-12-08T14:54:12;4.00;99.90
37530;DHT22;23374;52.758;6.872;2022-12-08T14:56:52;4.00;99.90
37530;DHT22;23374;52.758;6.872;2022-12-08T14:59:38;4.00;99.90
37530;DHT22;23374;52.758;6.872;2022-12-08T15:03:04;4.00;99.90
37530;DHT22;23374;52.758;6.872;2022-12-08T15:05:32;4.00;99.90
37530;DHT22;23374;52.758;6.872;2022-12-08T15:08:00;4.00;99.90
37530;DHT22;23374;52.758;6.872;2022-12-08T15:10:27;4.00;99.90
37530;DHT22;23374;52.758;6.872;2022-12-08T15:13:21;4.00;99.90
37530;DHT22;23374;52.758;6.872;2022-12-08T15:15:59;4.00;99.90
37530;DHT22;23374;52.758;6.872;2022-12-08T15:18:37;4.00;99.90
37530;DHT22;23374;52.758;6.872;2022-12-08T15:21:04;4.00;99.90
37530;DHT22;23374;52.758;6.872;2022-12-08T15:23:29;4.00;99.90
37530;DHT22;23374;52.758;6.872;2022-12-08T15:25:50;4.00;99.90
37530;DHT22;23374;52.758;6.872;2022-12-08T15:28:18;4.00;99.90
37530;DHT22;23374;52.758;6.872;2022-12-08T15:30:38;3.90;99.90
37530;DHT22;23374;52.758;6.872;2022-12-08T15:32:58;3.90;99.90
37530;DHT22;23374;52.758;6.872;2022-12-08T15:35:19;3.90;99.90
37530;DHT22;23374;52.758;6.872;2022-12-08T15:37:40;3.90;99.90
37530;DHT22;23374;52.758;6.872;2022-12-08T15:40:01;3.90;99.90
37530;DHT22;23374;52.758;6.872;2022-12-08T15:42:21;3.80;99.90
37530;DHT22;23374;52.758;6.872;2022-12-08T15:44:41;3.80;99.90
37530;DHT22;23374;52.758;6.872;2022-12-08T15:47:02;3.70;99.90
37530;DHT22;23374;52.758;6.872;2022-12-08T15:49:23;3.70;99.90
37530;DHT22;23374;52.758;6.872;2022-12-08T15:51:44;3.60;99.90
37530;DHT22;23374;52.758;6.872;2022-12-08T15:54:05;3.60;99.90
37530;DHT22;23374;52.758;6.872;2022-12-08T15:56:26;3.60;99.90
37530;DHT22;23374;52.758;6.872;2022-12-08T15:58:47;3.50;99.90
37530;DHT22;23374;52.758;6.872;2022-12-08T16:01:07;3.50;99.90
37530;DHT22;23374;52.758;6.872;2022-12-08T16:03:29;3.50;99.90
37530;DHT22;23374;52.758;6.872;2022-12-08T16:05:50;3.50;99.90
37530;DHT22;23374;52.758;6.872;2022-12-08T16:08:14;3.50;99.90
37530;DHT22;23374;52.758;6.872;2022-12-08T16:10:35;3.50;99.90
37530;DHT22;23374;52.758;6.872;2022-12-08T16:12:56;3.60;99.90
37530;DHT22;23374;52.758;6.872;2022-12-08T16:15:42;3.60;99.90
37530;DHT22;23374;52.758;6.872;2022-12-08T16:18:03;3.50;99.90
37530;DHT22;23374;52.758;6.872;2022-12-08T16:20:24;3.50;99.90
37530;DHT22;23374;52.758;6.872;2022-12-08T16:22:44;3.60;99.90
37530;DHT22;23374;52.758;6.872;2022-12-08T16:25:06;3.60;99.90
37530;DHT22;23374;52.758;6.872;2022-12-08T16:27:31;3.60;99.90
37530;DHT22;23374;52.758;6.872;2022-12-08T16:29:54;3.60;99.90
37530;DHT22;23374;52.758;6.872;2022-12-08T16:32:14;3.60;99.90
37530;DHT22;23374;52.758;6.872;2022-12-08T16:34:35;3.70;99.90
37530;DHT22;23374;52.758;6.872;2022-12-08T16:36:55;3.70;99.90
37530;DHT22;23374;52.758;6.872;2022-12-08T16:39:15;3.70;99.90
37530;DHT22;23374;52.758;6.872;2022-12-08T16:41:35;3.70;99.90
37530;DHT22;23374;52.758;6.872;2022-12-08T16:44:15;3.70;99.90
37530;DHT22;23374;52.758;6.872;2022-12-08T16:46:35;3.70;99.90
37530;DHT22;23374;52.758;6.872;2022-12-08T16:48:55;3.70;99.90
37530;DHT22;23374;52.758;6.872;2022-12-08T16:51:19;3.70;99.90
37530;DHT22;23374;52.758;6.872;2022-12-08T16:53:39;3.70;99.90
37530;DHT22;23374;52.758;6.872;2022-12-08T16:55:59;3.70;99.90